createdAt,value
2022-10-10T00:01:25.840Z,14.58
2022-10-10T00:03:54.577Z,14.57
2022-10-10T00:06:23.540Z,14.55
2022-10-10T00:08:52.051Z,14.53
2022-10-10T00:11:22.026Z,14.50
2022-10-10T00:13:51.374Z,14.48
2022-10-10T00:16:20.392Z,14.46
2022-10-10T00:18:48.969Z,14.42
2022-10-10T00:21:17.330Z,14.39
2022-10-10T00:23:45.711Z,14.35
2022-10-10T00:26:18.888Z,14.31
2022-10-10T00:28:48.306Z,14.27
2022-10-10T00:31:16.894Z,14.25
2022-10-10T00:33:45.783Z,14.22
2022-10-10T00:36:14.657Z,14.20
2022-10-10T00:38:43.157Z,14.17
2022-10-10T00:41:11.437Z,14.15
2022-10-10T00:43:40.223Z,14.13
2022-10-10T00:46:08.705Z,14.10
2022-10-10T00:48:41.692Z,14.09
2022-10-10T00:51:12.402Z,14.07
2022-10-10T00:53:40.806Z,14.05
2022-10-10T00:56:09.804Z,14.03
2022-10-10T00:58:40.512Z,14.00
2022-10-10T01:01:09.054Z,13.99
2022-10-10T01:03:37.198Z,13.99
2022-10-10T01:06:06.292Z,14.00
2022-10-10T01:08:34.567Z,14.00
2022-10-10T01:11:02.843Z,14.01
2022-10-10T01:13:47.381Z,14.01
2022-10-10T01:16:36.061Z,14.03
2022-10-10T01:19:04.741Z,14.01
2022-10-10T01:21:39.991Z,14.01
2022-10-10T01:24:21.063Z,14.01
2022-10-10T01:26:55.176Z,14.01
2022-10-10T01:29:26.936Z,13.99
2022-10-10T01:31:56.955Z,13.99
2022-10-10T01:34:28.921Z,13.97
2022-10-10T01:36:57.097Z,13.96
2022-10-10T01:39:32.541Z,13.94
2022-10-10T01:42:05.220Z,13.91
2022-10-10T01:44:33.581Z,13.91
2022-10-10T01:47:01.878Z,13.90
2022-10-10T01:49:31.822Z,13.87
2022-10-10T01:52:09.593Z,13.87
2022-10-10T01:54:50.573Z,13.86
2022-10-10T01:57:37.891Z,13.85
2022-10-10T02:00:06.540Z,13.83
2022-10-10T02:02:47.181Z,13.82
2022-10-10T02:05:21.976Z,13.80
2022-10-10T02:07:53.920Z,13.77
2022-10-10T02:10:24.869Z,13.75
2022-10-10T02:12:55.389Z,13.72
2022-10-10T02:15:25.601Z,13.70
2022-10-10T02:17:54.627Z,13.67
2022-10-10T02:20:25.444Z,13.63
2022-10-10T02:22:55.510Z,13.60
2022-10-10T02:25:32.159Z,13.56
2022-10-10T02:28:00.843Z,13.53
2022-10-10T02:30:29.141Z,13.49
2022-10-10T02:33:01.672Z,13.45
2022-10-10T02:35:40.830Z,13.42
2022-10-10T02:38:11.463Z,13.39
2022-10-10T02:40:41.812Z,13.34
2022-10-10T02:43:11.705Z,13.32
2022-10-10T02:45:40.657Z,13.28
2022-10-10T02:48:09.256Z,13.24
2022-10-10T02:50:38.484Z,13.21
2022-10-10T02:53:06.863Z,13.19
2022-10-10T02:55:35.343Z,13.15
2022-10-10T02:58:03.660Z,13.11
2022-10-10T03:00:32.102Z,13.08
2022-10-10T03:03:00.584Z,13.05
2022-10-10T03:05:28.967Z,13.04
2022-10-10T03:07:57.244Z,13.01
2022-10-10T03:10:25.827Z,12.99
2022-10-10T03:12:54.212Z,12.97
2022-10-10T03:15:22.511Z,12.94
2022-10-10T03:17:51.070Z,12.91
2022-10-10T03:20:19.550Z,12.87
2022-10-10T03:22:47.923Z,12.85
2022-10-10T03:25:16.720Z,12.83
2022-10-10T03:27:45.610Z,12.79
2022-10-10T03:30:13.844Z,12.75
2022-10-10T03:32:42.269Z,12.73
2022-10-10T03:35:10.848Z,12.69
2022-10-10T03:37:39.233Z,12.66
2022-10-10T03:40:07.818Z,12.63
2022-10-10T03:42:36.103Z,12.61
2022-10-10T03:45:04.860Z,12.59
2022-10-10T03:47:33.267Z,12.57
2022-10-10T03:50:01.647Z,12.56
2022-10-10T03:52:29.921Z,12.55
2022-10-10T03:54:58.608Z,12.54
2022-10-10T03:57:27.428Z,12.51
2022-10-10T03:59:55.571Z,12.50
2022-10-10T04:02:24.360Z,12.48
2022-10-10T04:04:53.058Z,12.46
2022-10-10T04:07:21.316Z,12.44
2022-10-10T04:09:50.014Z,12.42
2022-10-10T04:12:18.596Z,12.42
2022-10-10T04:14:46.771Z,12.44
2022-10-10T04:17:15.460Z,12.45
2022-10-10T04:19:43.917Z,12.44
2022-10-10T04:22:12.322Z,12.43
2022-10-10T04:24:40.495Z,12.41
2022-10-10T04:27:09.080Z,12.39
2022-10-10T04:29:37.562Z,12.37
2022-10-10T04:32:06.042Z,12.35
2022-10-10T04:34:34.525Z,12.32
2022-10-10T04:37:02.955Z,12.30
2022-10-10T04:39:31.285Z,12.29
2022-10-10T04:41:59.670Z,12.28
2022-10-10T04:44:28.210Z,12.27
2022-10-10T04:46:56.390Z,12.26
2022-10-10T04:49:24.807Z,12.24
2022-10-10T04:51:53.191Z,12.24
2022-10-10T04:54:21.771Z,12.24
2022-10-10T04:56:50.251Z,12.26
2022-10-10T04:59:18.737Z,12.29
2022-10-10T05:01:47.235Z,12.32
2022-10-10T05:04:15.596Z,12.35
2022-10-10T05:06:44.289Z,12.39
2022-10-10T05:09:12.663Z,12.41
2022-10-10T05:11:41.103Z,12.44
2022-10-10T05:14:09.850Z,12.46
2022-10-10T05:16:38.108Z,12.49
2022-10-10T05:19:06.693Z,12.51
2022-10-10T05:21:35.279Z,12.55
2022-10-10T05:24:03.752Z,12.60
2022-10-10T05:26:32.139Z,12.65
2022-10-10T05:29:01.849Z,12.69
2022-10-10T05:31:30.127Z,12.73
2022-10-10T05:33:58.593Z,12.76
2022-10-10T05:36:27.092Z,12.81
2022-10-10T05:38:55.675Z,12.84
2022-10-10T05:41:23.976Z,12.87
2022-10-10T05:43:52.438Z,12.92
2022-10-10T05:46:23.395Z,12.97
2022-10-10T05:48:51.860Z,13.03
2022-10-10T05:51:20.953Z,13.08
2022-10-10T05:53:49.231Z,13.12
2022-10-10T05:56:17.815Z,13.18
2022-10-10T05:58:46.206Z,13.23
2022-10-10T06:01:14.377Z,13.27
2022-10-10T06:03:43.236Z,13.33
2022-10-10T06:06:11.643Z,13.40
2022-10-10T06:08:39.819Z,13.48
2022-10-10T06:11:08.609Z,13.56
2022-10-10T06:13:38.217Z,13.64
2022-10-10T06:16:06.487Z,13.71
2022-10-10T06:18:34.874Z,13.77
2022-10-10T06:21:05.477Z,13.82
2022-10-10T06:23:34.293Z,13.92
2022-10-10T06:26:02.673Z,14.03
2022-10-10T06:28:31.453Z,14.14
2022-10-10T06:31:01.387Z,14.20
2022-10-10T06:33:29.863Z,14.26
2022-10-10T06:35:58.751Z,14.32
2022-10-10T06:38:27.816Z,14.40
2022-10-10T06:41:00.279Z,14.42
2022-10-10T06:43:29.421Z,14.45
2022-10-10T06:45:57.935Z,14.50
2022-10-10T06:48:26.999Z,14.56
2022-10-10T06:50:56.361Z,14.63
2022-10-10T06:53:24.886Z,14.77
2022-10-10T06:55:53.792Z,15.06
2022-10-10T06:58:23.591Z,15.21
2022-10-10T07:00:52.686Z,15.29
2022-10-10T07:03:21.477Z,15.39
2022-10-10T07:05:53.952Z,15.49
2022-10-10T07:08:22.739Z,15.66
2022-10-10T07:10:51.632Z,15.78
2022-10-10T07:13:20.633Z,15.86
2022-10-10T07:15:49.214Z,15.90
2022-10-10T07:18:18.279Z,15.90
2022-10-10T07:20:46.995Z,15.93
2022-10-10T07:23:15.740Z,15.96
2022-10-10T07:25:44.163Z,16.01
2022-10-10T07:28:12.471Z,16.06
2022-10-10T07:30:41.595Z,16.12
2022-10-10T07:33:10.840Z,16.18
2022-10-10T07:35:38.993Z,16.19
2022-10-10T07:38:07.601Z,16.17
2022-10-10T07:40:36.204Z,16.20
2022-10-10T07:43:06.614Z,16.28
2022-10-10T07:45:38.783Z,16.61
2022-10-10T07:48:07.260Z,16.94
2022-10-10T07:50:35.758Z,17.10
2022-10-10T07:53:04.636Z,17.28
2022-10-10T07:55:33.119Z,17.63
2022-10-10T07:58:03.956Z,17.83
2022-10-10T08:00:33.974Z,17.87
2022-10-10T08:03:02.588Z,17.91
2022-10-10T08:05:31.144Z,18.13
2022-10-10T08:07:59.728Z,18.32
2022-10-10T08:10:28.999Z,18.46
2022-10-10T08:12:57.204Z,18.50
2022-10-10T08:15:27.846Z,18.47
2022-10-10T08:17:58.676Z,18.47
2022-10-10T08:20:27.260Z,18.45
2022-10-10T08:22:55.420Z,18.49
2022-10-10T08:25:23.844Z,18.73
2022-10-10T08:27:52.296Z,18.88
2022-10-10T08:30:20.470Z,18.88
2022-10-10T08:32:49.257Z,18.92
2022-10-10T08:35:17.951Z,19.01
2022-10-10T08:37:46.293Z,19.04
2022-10-10T08:40:20.310Z,19.10
2022-10-10T08:42:53.016Z,19.12
2022-10-10T08:45:24.885Z,19.13
2022-10-10T08:47:56.335Z,19.29
2022-10-10T08:50:27.887Z,19.53
2022-10-10T08:52:56.074Z,19.78
2022-10-10T08:55:31.509Z,20.16
2022-10-10T08:58:10.445Z,20.52
2022-10-10T09:00:40.506Z,20.71
2022-10-10T09:03:32.110Z,20.88
2022-10-10T09:06:06.603Z,21.10
2022-10-10T09:08:49.523Z,21.35
2022-10-10T09:11:33.058Z,21.69
2022-10-10T09:14:11.576Z,22.06
2022-10-10T09:16:55.116Z,22.34
2022-10-10T09:19:30.737Z,22.47
2022-10-10T09:22:01.198Z,22.66
2022-10-10T09:24:43.548Z,22.70
2022-10-10T09:27:28.057Z,22.79
2022-10-10T09:30:07.991Z,22.96
2022-10-10T09:32:49.292Z,23.19
2022-10-10T09:35:21.337Z,23.30
2022-10-10T09:37:50.865Z,23.36
2022-10-10T09:40:23.035Z,23.40
2022-10-10T09:42:51.618Z,23.49
2022-10-10T09:45:21.276Z,23.65
2022-10-10T09:47:52.789Z,23.79
2022-10-10T09:50:21.823Z,23.95
2022-10-10T09:52:51.180Z,24.28
2022-10-10T09:55:19.460Z,24.58
2022-10-10T09:57:48.247Z,24.86
2022-10-10T10:00:19.291Z,24.88
2022-10-10T10:02:51.027Z,24.72
2022-10-10T10:05:26.746Z,24.81
2022-10-10T10:07:55.084Z,24.82
2022-10-10T10:10:24.934Z,24.87
2022-10-10T10:12:54.313Z,25.05
2022-10-10T10:15:29.001Z,24.98
2022-10-10T10:18:16.323Z,24.73
2022-10-10T10:20:46.151Z,24.65
2022-10-10T10:23:23.453Z,24.58
2022-10-10T10:25:59.320Z,24.72
2022-10-10T10:28:28.580Z,24.95
2022-10-10T10:30:58.844Z,25.12
2022-10-10T10:33:30.575Z,25.22
2022-10-10T10:36:04.912Z,25.43
2022-10-10T10:38:48.550Z,25.71
2022-10-10T10:41:44.785Z,25.85
2022-10-10T10:44:19.108Z,26.05
2022-10-10T10:47:06.534Z,26.33
2022-10-10T10:49:47.816Z,26.64
2022-10-10T10:52:22.132Z,26.83
2022-10-10T10:55:04.234Z,26.51
2022-10-10T10:58:04.856Z,26.39
2022-10-10T11:01:23.497Z,26.22
2022-10-10T11:05:20.077Z,26.06
2022-10-10T11:06:27.369Z,26.07
2022-10-10T11:09:13.616Z,26.49
2022-10-10T11:12:03.602Z,27.00
2022-10-10T11:14:50.050Z,27.30
2022-10-10T11:17:38.473Z,27.57
2022-10-10T11:20:06.799Z,27.72
2022-10-10T11:22:46.836Z,27.75
2022-10-10T11:25:19.719Z,27.76
2022-10-10T11:28:04.788Z,27.65
2022-10-10T11:30:36.155Z,27.67
2022-10-10T11:33:04.724Z,27.59
2022-10-10T11:35:52.048Z,27.64
2022-10-10T11:38:40.484Z,27.86
2022-10-10T11:41:14.307Z,28.07
2022-10-10T11:43:51.902Z,28.32
2022-10-10T11:46:38.787Z,28.60
2022-10-10T11:49:12.055Z,28.89
2022-10-10T11:52:09.370Z,28.99
2022-10-10T11:54:54.237Z,29.01
2022-10-10T11:57:38.488Z,29.14
2022-10-10T12:00:11.273Z,29.27
2022-10-10T12:02:43.033Z,29.40
2022-10-10T12:05:22.582Z,29.60
2022-10-10T12:07:50.955Z,29.64
2022-10-10T12:10:22.674Z,29.98
2022-10-10T12:12:53.312Z,30.45
2022-10-10T12:15:29.920Z,30.53
2022-10-10T12:17:58.811Z,30.89
2022-10-10T12:20:27.345Z,30.98
2022-10-10T12:23:11.241Z,31.03
2022-10-10T12:25:42.809Z,30.88
2022-10-10T12:28:14.660Z,30.94
2022-10-10T12:30:57.092Z,31.35
2022-10-10T12:33:26.571Z,31.70
2022-10-10T12:35:55.259Z,31.71
2022-10-10T12:38:23.548Z,31.60
2022-10-10T12:40:54.683Z,31.32
2022-10-10T12:43:37.450Z,31.46
2022-10-10T12:46:22.880Z,31.65
2022-10-10T12:48:59.968Z,31.72
2022-10-10T12:51:28.856Z,31.33
2022-10-10T12:53:58.977Z,30.98
2022-10-10T12:56:36.959Z,30.85
2022-10-10T12:59:06.575Z,30.99
2022-10-10T13:01:37.482Z,31.36
2022-10-10T13:04:05.748Z,31.57
2022-10-10T13:06:39.747Z,31.80
2022-10-10T13:09:09.739Z,31.90
2022-10-10T13:11:59.112Z,31.70
2022-10-10T13:14:28.753Z,31.44
2022-10-10T13:16:57.202Z,31.33
2022-10-10T13:19:25.945Z,31.52
2022-10-10T13:21:55.608Z,31.78
2022-10-10T13:24:27.669Z,31.83
2022-10-10T13:26:56.151Z,31.69
2022-10-10T13:29:27.193Z,31.83
2022-10-10T13:31:58.955Z,31.86
2022-10-10T13:34:30.404Z,31.72
2022-10-10T13:37:00.512Z,31.42
2022-10-10T13:39:29.934Z,30.83
2022-10-10T13:41:58.617Z,30.07
2022-10-10T13:44:46.658Z,29.53
2022-10-10T13:47:50.929Z,28.87
2022-10-10T13:50:29.709Z,28.30
2022-10-10T13:53:16.825Z,27.97
2022-10-10T13:55:45.498Z,27.75
2022-10-10T13:58:14.813Z,27.66
2022-10-10T14:00:43.091Z,27.57
2022-10-10T14:03:16.868Z,27.54
2022-10-10T14:05:45.996Z,27.46
2022-10-10T14:08:19.080Z,27.13
2022-10-10T14:10:58.678Z,26.97
2022-10-10T14:13:27.828Z,26.63
2022-10-10T14:16:09.272Z,26.28
2022-10-10T14:18:37.980Z,25.85
2022-10-10T14:21:08.534Z,25.35
2022-10-10T14:23:37.082Z,24.80
2022-10-10T14:26:06.523Z,24.31
2022-10-10T14:28:37.517Z,23.87
2022-10-10T14:31:06.766Z,23.51
2022-10-10T14:33:35.557Z,23.18
2022-10-10T14:36:04.445Z,22.90
2022-10-10T14:38:33.133Z,22.64
2022-10-10T14:41:02.432Z,22.41
2022-10-10T14:43:31.533Z,22.27
2022-10-10T14:45:59.745Z,22.09
2022-10-10T14:48:28.087Z,21.88
2022-10-10T14:50:56.775Z,21.66
2022-10-10T14:53:24.939Z,21.44
2022-10-10T14:55:56.261Z,21.21
2022-10-10T14:58:25.089Z,20.97
2022-10-10T15:00:53.601Z,20.73
2022-10-10T15:03:22.377Z,20.52
2022-10-10T15:05:51.150Z,20.32
2022-10-10T15:08:19.735Z,20.11
2022-10-10T15:10:48.627Z,19.90
2022-10-10T15:13:17.108Z,19.70
2022-10-10T15:15:47.671Z,19.50
2022-10-10T15:18:39.600Z,19.30
2022-10-10T15:21:08.673Z,19.08
2022-10-10T15:23:37.048Z,18.85
2022-10-10T15:26:06.145Z,18.64
2022-10-10T15:28:34.800Z,18.45
2022-10-10T15:31:05.176Z,18.24
2022-10-10T15:33:33.955Z,18.04
2022-10-10T15:36:10.593Z,17.85
2022-10-10T15:38:40.792Z,17.63
2022-10-10T15:41:10.311Z,17.43
2022-10-10T15:43:42.828Z,17.23
2022-10-10T15:46:11.485Z,17.01
2022-10-10T15:48:40.101Z,16.82
2022-10-10T15:51:08.888Z,16.62
2022-10-10T15:53:37.651Z,16.43
2022-10-10T15:56:09.933Z,16.26
2022-10-10T15:58:40.191Z,16.08
2022-10-10T16:01:12.937Z,15.90
2022-10-10T16:03:41.869Z,15.74
2022-10-10T16:06:10.844Z,15.60
2022-10-10T16:08:39.491Z,15.46
2022-10-10T16:11:09.139Z,15.33
2022-10-10T16:13:37.725Z,15.20
2022-10-10T16:16:07.749Z,15.08
2022-10-10T16:18:40.162Z,14.97
2022-10-10T16:21:10.748Z,14.86
2022-10-10T16:23:39.622Z,14.74
2022-10-10T16:26:09.657Z,14.63
2022-10-10T16:28:37.908Z,14.54
2022-10-10T16:31:07.719Z,14.44
2022-10-10T16:33:36.996Z,14.36
2022-10-10T16:36:09.628Z,14.26
2022-10-10T16:38:38.009Z,14.18
2022-10-10T16:41:10.766Z,14.13
2022-10-10T16:43:46.435Z,14.07
2022-10-10T16:46:16.562Z,14.00
2022-10-10T16:48:45.146Z,13.93
2022-10-10T16:51:15.136Z,13.86
2022-10-10T16:53:43.750Z,13.80
2022-10-10T16:56:13.358Z,13.72
2022-10-10T16:58:41.916Z,13.66
2022-10-10T17:01:11.533Z,13.59
2022-10-10T17:03:40.136Z,13.51
2022-10-10T17:06:16.712Z,13.43
2022-10-10T17:08:45.703Z,13.35
2022-10-10T17:11:18.279Z,13.28
2022-10-10T17:14:26.379Z,13.21
2022-10-10T17:19:43.527Z,13.06
2022-10-10T17:22:12.319Z,13.01
2022-10-10T17:24:40.595Z,12.97
2022-10-10T17:27:08.978Z,12.93
2022-10-10T17:29:37.971Z,12.87
2022-10-10T17:32:06.957Z,12.81
2022-10-10T17:35:15.690Z,12.76
2022-10-10T17:38:39.164Z,12.67
2022-10-10T17:41:08.872Z,12.58
2022-10-10T17:43:37.659Z,12.52
2022-10-10T17:46:33.263Z,12.44
2022-10-10T17:48:59.716Z,12.35
2022-10-10T17:51:28.299Z,12.28
2022-10-10T17:53:59.035Z,12.21
2022-10-10T17:56:27.926Z,12.14
2022-10-10T17:58:56.413Z,12.07
2022-10-10T18:01:24.616Z,11.98
2022-10-10T18:03:52.962Z,11.90
2022-10-10T18:06:22.475Z,11.82
2022-10-10T18:08:51.775Z,11.74
2022-10-10T18:11:21.890Z,11.67
2022-10-10T18:13:50.373Z,11.60
2022-10-10T18:16:20.070Z,11.52
2022-10-10T18:18:51.361Z,11.43
2022-10-10T18:21:21.557Z,11.36
2022-10-10T18:23:50.187Z,11.29
2022-10-10T18:26:20.054Z,11.22
2022-10-10T18:28:48.693Z,11.15
2022-10-10T18:31:21.625Z,11.09
2022-10-10T18:33:50.317Z,11.04
2022-10-10T18:36:21.252Z,10.98
2022-10-10T18:38:49.736Z,10.92
2022-10-10T18:41:37.060Z,10.84
2022-10-10T18:44:07.352Z,10.80
2022-10-10T18:46:35.767Z,10.78
2022-10-10T18:49:05.082Z,10.74
2022-10-10T18:51:33.855Z,10.72
2022-10-10T18:54:04.320Z,10.71
2022-10-10T18:56:33.393Z,10.68
2022-10-10T18:59:03.820Z,10.65
2022-10-10T19:01:35.504Z,10.61
2022-10-10T19:04:04.972Z,10.55
2022-10-10T19:06:33.143Z,10.50
2022-10-10T19:09:02.240Z,10.44
2022-10-10T19:11:31.615Z,10.39
2022-10-10T19:14:01.866Z,10.35
2022-10-10T19:16:30.861Z,10.30
2022-10-10T19:19:00.366Z,10.26
2022-10-10T19:21:30.084Z,10.21
2022-10-10T19:24:02.101Z,10.18
2022-10-10T19:26:33.618Z,10.15
2022-10-10T19:29:07.476Z,10.10
2022-10-10T19:31:36.907Z,10.07
2022-10-10T19:34:05.085Z,10.04
2022-10-10T19:36:36.142Z,10.02
2022-10-10T19:39:07.280Z,9.99
2022-10-10T19:41:35.852Z,9.95
2022-10-10T19:44:05.966Z,9.90
2022-10-10T19:46:37.243Z,9.85
2022-10-10T19:49:06.936Z,9.81
2022-10-10T19:51:35.311Z,9.76
2022-10-10T19:54:03.795Z,9.71
2022-10-10T19:56:32.378Z,9.66
2022-10-10T19:59:01.472Z,9.63
2022-10-10T20:01:30.691Z,9.58
2022-10-10T20:04:00.790Z,9.54
2022-10-10T20:06:29.478Z,9.50
2022-10-10T20:08:57.655Z,9.46
2022-10-10T20:11:26.749Z,9.45
2022-10-10T20:13:56.075Z,9.44
2022-10-10T20:16:25.657Z,9.43
2022-10-10T20:18:54.736Z,9.43
2022-10-10T20:21:24.776Z,9.43
2022-10-10T20:23:53.155Z,9.45
2022-10-10T20:26:22.967Z,9.45
2022-10-10T20:28:51.563Z,9.44
2022-10-10T20:31:21.615Z,9.43
2022-10-10T20:33:50.972Z,9.42
2022-10-10T20:36:20.093Z,9.42
2022-10-10T20:38:53.191Z,9.41
2022-10-10T20:41:22.745Z,9.44
2022-10-10T20:43:51.043Z,9.45
2022-10-10T20:46:19.833Z,9.45
2022-10-10T20:48:48.455Z,9.44
2022-10-10T20:51:16.797Z,9.43
2022-10-10T20:53:45.354Z,9.39
2022-10-10T20:56:13.734Z,9.37
2022-10-10T20:58:41.935Z,9.34
2022-10-10T21:01:21.192Z,9.29
2022-10-10T21:03:49.958Z,9.26
2022-10-10T21:06:26.116Z,9.23
2022-10-10T21:08:54.807Z,9.19
2022-10-10T21:11:24.011Z,9.16
2022-10-10T21:13:57.102Z,9.13
2022-10-10T21:16:51.998Z,9.12
2022-10-10T21:19:20.460Z,9.10
2022-10-10T21:21:49.269Z,9.06
2022-10-10T21:24:17.547Z,9.01
2022-10-10T21:26:46.232Z,8.96
2022-10-10T21:29:14.714Z,8.91
2022-10-10T21:31:43.196Z,8.86
2022-10-10T21:34:13.808Z,8.78
2022-10-10T21:36:42.208Z,8.72
2022-10-10T21:39:11.715Z,8.65
2022-10-10T21:41:40.510Z,8.60
2022-10-10T21:44:09.907Z,8.55
2022-10-10T21:46:38.388Z,8.51
2022-10-10T21:49:08.276Z,8.48
2022-10-10T21:51:38.629Z,8.45
2022-10-10T21:54:07.166Z,8.42
2022-10-10T21:56:35.920Z,8.38
2022-10-10T21:59:04.640Z,8.36
2022-10-10T22:01:33.475Z,8.34
2022-10-10T22:04:03.063Z,8.33
2022-10-10T22:06:31.877Z,8.33
2022-10-10T22:09:01.005Z,8.36
2022-10-10T22:11:30.659Z,8.39
2022-10-10T22:13:59.073Z,8.42
2022-10-10T22:16:27.389Z,8.44
2022-10-10T22:18:56.127Z,8.47
2022-10-10T22:21:29.996Z,8.50
2022-10-10T22:24:02.132Z,8.52
2022-10-10T22:26:30.894Z,8.53
2022-10-10T22:28:59.725Z,8.53
2022-10-10T22:31:29.585Z,8.54
2022-10-10T22:33:58.181Z,8.54
2022-10-10T22:36:26.567Z,8.53
2022-10-10T22:38:55.243Z,8.52
2022-10-10T22:41:23.834Z,8.51
2022-10-10T22:43:52.007Z,8.51
2022-10-10T22:46:20.695Z,8.50
2022-10-10T22:48:48.971Z,8.48
2022-10-10T22:51:17.764Z,8.45
2022-10-10T22:53:47.240Z,8.43
2022-10-10T22:56:17.741Z,8.41
2022-10-10T22:58:46.995Z,8.37
2022-10-10T23:01:17.074Z,8.35
2022-10-10T23:03:45.910Z,8.32
2022-10-10T23:06:14.796Z,8.30
2022-10-10T23:08:43.486Z,8.27
2022-10-10T23:11:12.375Z,8.24
2022-10-10T23:13:40.755Z,8.21
2022-10-10T23:16:09.335Z,8.20
2022-10-10T23:18:38.023Z,8.18
2022-10-10T23:21:06.151Z,8.16
2022-10-10T23:23:34.783Z,8.15
2022-10-10T23:26:07.739Z,8.15
2022-10-10T23:28:36.778Z,8.17
2022-10-10T23:31:06.868Z,8.19
2022-10-10T23:33:37.129Z,8.22
2022-10-10T23:36:08.157Z,8.24
2022-10-10T23:38:37.860Z,8.26
2022-10-10T23:41:06.240Z,8.29
2022-10-10T23:43:34.618Z,8.30
2022-10-10T23:46:03.528Z,8.29
2022-10-10T23:48:32.095Z,8.28
2022-10-10T23:51:00.680Z,8.28
2022-10-10T23:53:29.113Z,8.25
2022-10-10T23:55:57.238Z,8.23
2022-10-10T23:58:25.921Z,8.20
